Hovedside
METAR-TAF:

METAR-TAF

Lufthavner :

Ouargla, Algerie

breddegrad: 31-55N, lengdegrad: 005-24E, høyde over havet: 141 m

Gjeldene værobservasjon

Denne rapporten ble laget for 16 minutter siden, klokken 11:00 UTC
Vind 8 kt fra Nord
Temperatur 14°C
Luftfuktighet 58%
Trykk 1018 hPa
Sikt 10 km eller mer
Spredte skyer i en høyde av 4000 ft
Brutte skyer i en høyde av 10000 ft

METAR: DAUU 071100Z 01008KT 9999 SCT040 BKN100 14/06 Q1018

Tid: 12:16 (11:16 UTC)

Varsel

Denne rapporten ble laget for 3 timer og 16 minutter siden, klokken 08:00 UTC
Varsel gyldig fra 07. klokken 09 UTC til 07. klokken 18 UTC
Vind 8 kt fra Øst
Sikt 10 km eller mer
Få skyer i en høyde av 4600 ft
Spredte skyer i en høyde av 20000 ft
Sannsynlighet 30% :
Midlertidig
fra 07. klokken 09 UTC til 07. klokken 12 UTC
Få skyer i en høyde av 3300 ft, Tårnskyer (cumulus).

TAF: DAUU 070800Z 0709/0718 08008KT 9999 FEW046 SCT200 PROB30 TEMPO 0709/0712 FEW033TCU

Værobservasjoner og værvarsel for over 4000 flyplasser (METAR- og TAF-rapporter).

Tilgjengelige stasjoner er representert av de røde og gule prikkene på kartet.

Hold musepekeren over prikken for å se navnet på stasjonen.

Klikk så for å se værobservasjoner og -varsler.

For å forandre kartet kan du klikke på den grønne knappen med svart kryss for å zoome inn, på den grønne knappen med strek for å zoome ut, eller på de grønne pilene for å se tilstøtende kart.


METAR-TAF: